createdAt,value
2023-05-10T00:01:33.712Z,47.83
2023-05-10T00:04:00.992Z,47.85
2023-05-10T00:06:28.899Z,47.86
2023-05-10T00:08:56.208Z,48.02
2023-05-10T00:11:23.703Z,47.86
2023-05-10T00:13:50.922Z,47.85
2023-05-10T00:16:18.424Z,48.08
2023-05-10T00:18:45.680Z,47.91
2023-05-10T00:21:13.250Z,48.09
2023-05-10T00:23:40.719Z,48.07
2023-05-10T00:26:08.489Z,48.17
2023-05-10T00:28:35.789Z,48.01
2023-05-10T00:31:03.468Z,47.89
2023-05-10T00:33:30.738Z,48.03
2023-05-10T00:35:58.214Z,48.06
2023-05-10T00:38:25.528Z,48.04
2023-05-10T00:40:53.041Z,48.03
2023-05-10T00:43:20.250Z,47.99
2023-05-10T00:45:48.169Z,48.17
2023-05-10T00:48:15.544Z,48.00
2023-05-10T00:50:43.125Z,48.02
2023-05-10T00:53:11.182Z,48.14
2023-05-10T00:55:38.901Z,48.00
2023-05-10T00:58:06.622Z,48.13
2023-05-10T01:00:34.967Z,48.19
2023-05-10T01:03:03.570Z,48.07
2023-05-10T01:05:31.213Z,48.22
2023-05-10T01:07:58.480Z,48.19
2023-05-10T01:10:26.966Z,48.18
2023-05-10T01:12:54.673Z,48.06
2023-05-10T01:15:22.951Z,48.20
2023-05-10T01:17:50.474Z,48.29
2023-05-10T01:20:18.602Z,48.31
2023-05-10T01:23:23.988Z,48.20
2023-05-10T01:26:40.475Z,48.34
2023-05-10T01:29:40.277Z,48.19
2023-05-10T01:32:07.711Z,48.36
2023-05-10T01:35:01.616Z,48.20
2023-05-10T01:37:37.167Z,48.20
2023-05-10T01:40:22.075Z,48.40
2023-05-10T01:42:58.079Z,48.30
2023-05-10T01:45:31.728Z,48.39
2023-05-10T01:48:09.362Z,48.26
2023-05-10T01:50:39.391Z,48.37
2023-05-10T01:53:12.456Z,48.22
2023-05-10T01:55:47.895Z,48.29
2023-05-10T01:58:20.364Z,48.21
2023-05-10T02:00:50.568Z,48.23
2023-05-10T02:03:22.109Z,48.32
2023-05-10T02:05:51.080Z,48.26
2023-05-10T02:08:20.123Z,48.35
2023-05-10T02:10:49.316Z,48.33
2023-05-10T02:13:19.062Z,48.16
2023-05-10T02:15:51.196Z,48.35
2023-05-10T02:18:19.291Z,48.33
2023-05-10T02:20:47.986Z,48.35
2023-05-10T02:23:18.152Z,48.32
2023-05-10T02:25:46.927Z,48.31
2023-05-10T02:28:16.451Z,48.33
2023-05-10T02:30:44.470Z,48.45
2023-05-10T02:33:12.796Z,48.26
2023-05-10T02:35:41.049Z,48.26
2023-05-10T02:38:10.204Z,48.32
2023-05-10T02:40:38.249Z,48.44
2023-05-10T02:43:07.458Z,48.50
2023-05-10T02:45:37.393Z,48.40
2023-05-10T02:48:05.156Z,48.46
2023-05-10T02:50:34.240Z,48.42
2023-05-10T02:53:07.890Z,48.51
2023-05-10T02:55:39.036Z,48.39
2023-05-10T02:58:06.535Z,48.34
2023-05-10T03:00:33.918Z,48.57
2023-05-10T03:03:01.579Z,48.57
2023-05-10T03:05:28.937Z,48.54
2023-05-10T03:07:57.073Z,48.63
2023-05-10T03:10:28.950Z,48.50
2023-05-10T03:13:01.452Z,48.49
2023-05-10T03:15:41.607Z,48.52
2023-05-10T03:18:14.059Z,48.60
2023-05-10T03:20:48.401Z,48.62
2023-05-10T03:23:18.900Z,48.58
2023-05-10T03:25:48.946Z,48.66
2023-05-10T03:28:18.713Z,48.68
2023-05-10T03:30:47.117Z,48.65
2023-05-10T03:33:15.194Z,48.60
2023-05-10T03:35:42.566Z,48.62
2023-05-10T03:38:10.098Z,48.49
2023-05-10T03:40:37.528Z,48.57
2023-05-10T03:43:05.215Z,48.53
2023-05-10T03:45:32.558Z,48.47
2023-05-10T03:48:00.290Z,48.41
2023-05-10T03:50:27.811Z,48.57
2023-05-10T03:52:55.317Z,48.32
2023-05-10T03:55:23.426Z,48.42
2023-05-10T03:57:50.937Z,48.29
2023-05-10T04:00:18.462Z,48.25
2023-05-10T04:02:46.546Z,48.35
2023-05-10T04:05:13.884Z,48.37
2023-05-10T04:07:41.459Z,48.27
2023-05-10T04:10:09.258Z,48.26
2023-05-10T04:12:36.964Z,48.12
2023-05-10T04:15:04.689Z,48.06
2023-05-10T04:17:32.413Z,48.08
2023-05-10T04:19:59.758Z,47.96
2023-05-10T04:22:28.620Z,48.05
2023-05-10T04:24:55.855Z,47.96
2023-05-10T04:27:23.444Z,47.87
2023-05-10T04:29:51.662Z,47.90
2023-05-10T04:32:19.988Z,47.83
2023-05-10T04:34:47.676Z,47.84
2023-05-10T04:37:15.338Z,47.85
2023-05-10T04:39:42.699Z,47.90
2023-05-10T04:42:10.333Z,47.76
2023-05-10T04:44:37.694Z,44.26
2023-05-10T04:47:05.441Z,42.61
2023-05-10T04:49:33.227Z,41.27
2023-05-10T04:52:00.759Z,41.23
2023-05-10T04:54:27.996Z,41.45
2023-05-10T04:56:56.005Z,42.61
2023-05-10T04:59:23.367Z,41.14
2023-05-10T05:01:50.959Z,40.61
2023-05-10T05:04:18.317Z,39.80
2023-05-10T05:06:45.980Z,39.91
2023-05-10T05:09:13.225Z,40.21
2023-05-10T05:11:41.362Z,42.32
2023-05-10T05:14:08.751Z,42.70
2023-05-10T05:16:36.455Z,42.96
2023-05-10T05:19:04.108Z,42.84
2023-05-10T05:21:33.149Z,42.58
2023-05-10T05:24:00.854Z,42.47
2023-05-10T05:26:28.492Z,42.28
2023-05-10T05:28:55.905Z,42.36
2023-05-10T05:31:23.504Z,42.37
2023-05-10T05:33:50.827Z,42.66
2023-05-10T05:36:18.417Z,42.76
2023-05-10T05:38:45.995Z,42.78
2023-05-10T05:41:13.626Z,42.89
2023-05-10T05:43:40.901Z,43.04
2023-05-10T05:46:09.082Z,43.13
2023-05-10T05:48:36.823Z,43.18
2023-05-10T05:51:07.025Z,43.35
2023-05-10T05:53:34.649Z,43.51
2023-05-10T05:56:02.763Z,43.53
2023-05-10T05:58:30.079Z,43.56
2023-05-10T06:00:58.338Z,43.64
2023-05-10T06:03:25.722Z,43.58
2023-05-10T06:05:53.437Z,43.70
2023-05-10T06:08:21.289Z,43.75
2023-05-10T06:10:48.876Z,43.84
2023-05-10T06:13:16.537Z,43.86
2023-05-10T06:15:44.160Z,44.26
2023-05-10T06:18:11.480Z,43.99
2023-05-10T06:20:39.061Z,44.07
2023-05-10T06:23:06.368Z,44.05
2023-05-10T06:25:33.857Z,43.92
2023-05-10T06:28:01.292Z,44.20
2023-05-10T06:30:29.828Z,44.08
2023-05-10T06:32:57.997Z,44.07
2023-05-10T06:35:26.065Z,44.22
2023-05-10T06:37:53.713Z,44.24
2023-05-10T06:40:21.313Z,44.23
2023-05-10T06:42:49.289Z,44.36
2023-05-10T06:45:17.797Z,44.37
2023-05-10T06:47:45.513Z,44.48
2023-05-10T06:50:13.280Z,44.46
2023-05-10T06:52:41.554Z,44.34
2023-05-10T06:55:09.787Z,44.58
2023-05-10T06:57:37.148Z,44.64
2023-05-10T07:00:05.773Z,44.57
2023-05-10T07:02:33.416Z,44.55
2023-05-10T07:05:03.205Z,44.61
2023-05-10T07:07:42.544Z,44.63
2023-05-10T07:10:10.657Z,44.71
2023-05-10T07:12:39.356Z,44.68
2023-05-10T07:15:07.687Z,44.52
2023-05-10T07:17:35.048Z,44.66
2023-05-10T07:20:04.490Z,44.68
2023-05-10T07:22:31.755Z,44.85
2023-05-10T07:24:59.444Z,44.63
2023-05-10T07:27:26.781Z,44.59
2023-05-10T07:29:54.238Z,44.67
2023-05-10T07:32:22.549Z,44.60
2023-05-10T07:34:50.499Z,44.65
2023-05-10T07:37:17.830Z,44.66
2023-05-10T07:39:45.565Z,44.75
2023-05-10T07:42:12.841Z,44.71
2023-05-10T07:44:40.376Z,44.66
2023-05-10T07:47:07.667Z,44.65
2023-05-10T07:49:35.183Z,44.86
2023-05-10T07:52:04.401Z,44.69
2023-05-10T07:54:32.148Z,44.87
2023-05-10T07:57:01.375Z,44.87
2023-05-10T07:59:28.976Z,44.82
2023-05-10T08:01:57.119Z,44.70
2023-05-10T08:04:25.097Z,44.76
2023-05-10T08:06:52.409Z,44.74
2023-05-10T08:09:24.589Z,44.78
2023-05-10T08:11:51.950Z,44.87
2023-05-10T08:14:19.546Z,44.79
2023-05-10T08:16:46.892Z,44.78
2023-05-10T08:19:14.511Z,44.76
2023-05-10T08:21:43.345Z,44.82
2023-05-10T08:24:11.041Z,44.87
2023-05-10T08:26:38.496Z,44.88
2023-05-10T08:29:06.015Z,44.93
2023-05-10T08:31:33.340Z,44.96
2023-05-10T08:34:01.328Z,44.81
2023-05-10T08:36:28.652Z,44.74
2023-05-10T08:38:57.558Z,44.72
2023-05-10T08:41:26.823Z,44.76
2023-05-10T08:43:55.069Z,44.62
2023-05-10T08:46:23.900Z,44.69
2023-05-10T08:48:53.052Z,44.59
2023-05-10T08:51:23.465Z,44.54
2023-05-10T08:53:51.135Z,44.66
2023-05-10T08:56:18.883Z,44.59
2023-05-10T08:58:46.489Z,44.62
2023-05-10T09:01:16.120Z,44.67
2023-05-10T09:03:44.557Z,44.65
2023-05-10T09:06:14.325Z,44.52
2023-05-10T09:08:43.064Z,44.38
2023-05-10T09:11:11.371Z,44.38
2023-05-10T09:13:38.921Z,44.60
2023-05-10T09:16:17.482Z,44.55
2023-05-10T09:18:48.442Z,44.56
2023-05-10T09:21:16.069Z,44.55
2023-05-10T09:23:48.611Z,44.44
2023-05-10T09:26:16.346Z,44.49
2023-05-10T09:28:55.551Z,44.59
2023-05-10T09:31:23.005Z,44.67
2023-05-10T09:33:51.386Z,44.40
2023-05-10T09:36:18.825Z,44.47
2023-05-10T09:38:53.605Z,44.49
2023-05-10T09:41:23.466Z,44.47
2023-05-10T09:43:51.010Z,44.35
2023-05-10T09:46:18.383Z,44.53
2023-05-10T09:48:47.786Z,44.55
2023-05-10T09:51:27.782Z,44.49
2023-05-10T09:54:11.607Z,44.43
2023-05-10T09:56:41.352Z,44.49
2023-05-10T09:59:11.476Z,44.61
2023-05-10T10:01:40.116Z,44.47
2023-05-10T10:04:10.075Z,44.36
2023-05-10T10:06:41.166Z,44.37
2023-05-10T10:09:09.437Z,44.45
2023-05-10T10:11:37.829Z,44.44
2023-05-10T10:14:06.529Z,44.37
2023-05-10T10:16:33.928Z,44.27
2023-05-10T10:19:01.795Z,44.37
2023-05-10T10:21:29.242Z,44.36
2023-05-10T10:23:56.952Z,44.35
2023-05-10T10:26:25.038Z,44.36
2023-05-10T10:29:17.707Z,44.25
2023-05-10T10:32:13.046Z,44.33
2023-05-10T10:34:41.528Z,44.48
2023-05-10T10:37:08.933Z,44.35
2023-05-10T10:39:37.759Z,44.26
2023-05-10T10:42:06.106Z,44.31
2023-05-10T10:44:34.725Z,44.34
2023-05-10T10:47:02.536Z,44.33
2023-05-10T10:49:38.303Z,44.11
2023-05-10T10:52:24.333Z,44.39
2023-05-10T10:55:01.253Z,44.08
2023-05-10T10:57:32.084Z,44.05
2023-05-10T11:00:21.327Z,44.17
2023-05-10T11:02:54.780Z,44.16
2023-05-10T11:05:36.003Z,44.18
2023-05-10T11:08:29.259Z,44.06
2023-05-10T11:11:04.204Z,44.12
2023-05-10T11:13:51.640Z,43.94
2023-05-10T11:16:26.517Z,44.05
2023-05-10T11:19:10.491Z,43.97
2023-05-10T11:21:52.844Z,43.95
2023-05-10T11:24:23.471Z,43.98
2023-05-10T11:26:52.698Z,43.85
2023-05-10T11:29:20.909Z,43.94
2023-05-10T11:31:49.534Z,43.81
2023-05-10T11:34:28.762Z,43.90
2023-05-10T11:36:57.125Z,43.77
2023-05-10T11:39:32.553Z,43.81
2023-05-10T11:42:00.446Z,43.88
2023-05-10T11:44:34.317Z,43.89
2023-05-10T11:47:02.737Z,43.84
2023-05-10T11:49:30.747Z,43.79
2023-05-10T11:52:08.503Z,43.93
2023-05-10T11:54:36.219Z,43.86
2023-05-10T11:57:03.790Z,43.99
2023-05-10T11:59:31.541Z,44.15
2023-05-10T12:01:59.085Z,44.09
2023-05-10T12:04:28.800Z,44.11
2023-05-10T12:06:56.474Z,43.95
2023-05-10T12:11:57.943Z,44.06
2023-05-10T12:14:29.145Z,43.88
2023-05-10T12:16:58.424Z,43.80
2023-05-10T12:19:25.916Z,43.91
2023-05-10T12:21:53.308Z,44.02
2023-05-10T12:24:22.490Z,43.92
2023-05-10T12:26:51.140Z,43.88
2023-05-10T12:29:20.010Z,44.11
2023-05-10T12:31:56.662Z,43.89
2023-05-10T12:34:27.744Z,44.02
2023-05-10T12:36:55.946Z,44.05
2023-05-10T12:39:23.879Z,44.07
2023-05-10T12:41:52.921Z,44.02
2023-05-10T12:44:20.507Z,44.12
2023-05-10T12:46:47.888Z,43.79
2023-05-10T12:49:15.484Z,43.97
2023-05-10T12:51:42.940Z,44.10
2023-05-10T12:54:10.733Z,44.11
2023-05-10T12:56:38.117Z,44.17
2023-05-10T12:59:05.631Z,43.99
2023-05-10T13:01:33.358Z,43.97
2023-05-10T13:04:01.239Z,44.18
2023-05-10T13:06:28.541Z,44.01
2023-05-10T13:08:56.053Z,44.25
2023-05-10T13:11:23.387Z,43.91
2023-05-10T13:13:50.963Z,43.87
2023-05-10T13:16:18.288Z,44.00
2023-05-10T13:18:45.969Z,44.17
2023-05-10T13:21:13.257Z,44.06
2023-05-10T13:23:40.955Z,43.81
2023-05-10T13:26:08.168Z,43.87
2023-05-10T13:28:35.874Z,44.08
2023-05-10T13:31:03.139Z,44.02
2023-05-10T13:33:30.655Z,43.95
2023-05-10T13:35:57.926Z,44.24
2023-05-10T13:38:25.430Z,44.18
2023-05-10T13:40:53.809Z,44.13
2023-05-10T13:43:21.518Z,44.17
2023-05-10T13:45:48.723Z,44.34
2023-05-10T13:48:16.535Z,44.39
2023-05-10T13:50:44.259Z,44.26
2023-05-10T13:53:11.486Z,44.33
2023-05-10T13:55:39.248Z,44.40
2023-05-10T13:58:06.680Z,44.21
2023-05-10T14:00:34.468Z,44.16
2023-05-10T14:03:01.946Z,44.21
2023-05-10T14:05:29.850Z,44.39
2023-05-10T14:07:57.208Z,44.30
2023-05-10T14:10:24.925Z,44.38
2023-05-10T14:12:52.247Z,44.44
2023-05-10T14:15:19.951Z,44.39
2023-05-10T14:17:47.298Z,44.36
2023-05-10T14:20:14.964Z,44.31
2023-05-10T14:22:42.375Z,44.41
2023-05-10T14:25:10.341Z,44.58
2023-05-10T14:27:37.591Z,44.37
2023-05-10T14:30:05.718Z,44.19
2023-05-10T14:32:33.188Z,44.42
2023-05-10T14:35:01.116Z,44.46
2023-05-10T14:37:28.395Z,44.31
2023-05-10T14:39:55.892Z,44.58
2023-05-10T14:42:23.127Z,44.62
2023-05-10T14:44:50.630Z,44.42
2023-05-10T14:47:17.827Z,44.43
2023-05-10T14:49:45.463Z,44.31
2023-05-10T14:52:13.264Z,44.44
2023-05-10T14:54:41.412Z,44.36
2023-05-10T14:57:08.769Z,44.49
2023-05-10T14:59:36.518Z,44.52
2023-05-10T15:02:05.251Z,44.46
2023-05-10T15:04:33.261Z,44.50
2023-05-10T15:07:01.533Z,44.61
2023-05-10T15:09:29.647Z,44.51
2023-05-10T15:11:57.153Z,44.64
2023-05-10T15:14:25.162Z,44.52
2023-05-10T15:16:52.479Z,44.71
2023-05-10T15:19:21.057Z,44.58
2023-05-10T15:21:48.360Z,44.54
2023-05-10T15:24:16.009Z,44.72
2023-05-10T15:26:43.228Z,44.60
2023-05-10T15:29:11.238Z,44.61
2023-05-10T15:31:40.556Z,44.37
2023-05-10T15:34:08.226Z,44.67
2023-05-10T15:36:35.466Z,44.74
2023-05-10T15:39:03.948Z,44.72
2023-05-10T15:41:31.329Z,44.88
2023-05-10T15:44:02.372Z,44.79
2023-05-10T15:46:29.954Z,44.87
2023-05-10T15:49:00.464Z,44.78
2023-05-10T15:51:27.734Z,44.66
2023-05-10T15:54:06.624Z,44.90
2023-05-10T15:56:35.751Z,44.92
2023-05-10T15:59:04.026Z,45.00
2023-05-10T16:01:32.431Z,44.87
2023-05-10T16:04:00.967Z,44.88
2023-05-10T16:06:28.387Z,44.97
2023-05-10T16:08:56.465Z,45.04
2023-05-10T16:11:23.817Z,45.07
2023-05-10T16:13:51.514Z,44.89
2023-05-10T16:16:18.848Z,45.01
2023-05-10T16:18:46.536Z,45.12
2023-05-10T16:21:13.923Z,45.01
2023-05-10T16:23:41.411Z,44.97
2023-05-10T16:26:08.843Z,44.82
2023-05-10T16:28:36.447Z,44.98
2023-05-10T16:31:03.837Z,44.81
2023-05-10T16:33:31.553Z,44.83
2023-05-10T16:35:59.094Z,44.85
2023-05-10T16:38:26.868Z,44.79
2023-05-10T16:40:54.189Z,44.64
2023-05-10T16:43:23.980Z,44.63
2023-05-10T16:45:52.784Z,44.76
2023-05-10T16:48:20.441Z,44.85
2023-05-10T16:50:48.224Z,44.70
2023-05-10T16:53:16.193Z,44.71
2023-05-10T16:55:43.429Z,44.64
2023-05-10T16:58:11.113Z,44.75
2023-05-10T17:00:38.393Z,44.71
2023-05-10T17:03:06.184Z,44.59
2023-05-10T17:05:34.531Z,44.67
2023-05-10T17:08:02.297Z,44.83
2023-05-10T17:10:29.729Z,44.88
2023-05-10T17:12:57.339Z,44.69
2023-05-10T17:15:24.797Z,44.80
2023-05-10T17:17:52.865Z,44.77
2023-05-10T17:20:20.791Z,44.80
2023-05-10T17:22:49.056Z,44.80
2023-05-10T17:25:16.973Z,44.74
2023-05-10T17:27:44.999Z,44.70
2023-05-10T17:30:13.989Z,44.94
2023-05-10T17:32:42.285Z,44.92
2023-05-10T17:35:09.983Z,44.74
2023-05-10T17:37:37.727Z,44.87
2023-05-10T17:40:07.450Z,44.91
2023-05-10T17:42:35.130Z,44.83
2023-05-10T17:45:02.691Z,44.92
2023-05-10T17:47:30.476Z,44.65
2023-05-10T17:49:58.012Z,44.83
2023-05-10T17:52:26.068Z,44.86
2023-05-10T17:54:53.611Z,44.92
2023-05-10T17:57:22.494Z,44.86
2023-05-10T17:59:50.133Z,44.70
2023-05-10T18:02:18.040Z,44.93
2023-05-10T18:04:46.072Z,44.99
2023-05-10T18:07:13.912Z,44.88
2023-05-10T18:09:41.351Z,45.02
2023-05-10T18:12:08.959Z,44.92
2023-05-10T18:14:40.940Z,44.99
2023-05-10T18:17:09.940Z,44.93
2023-05-10T18:19:37.435Z,44.97
2023-05-10T18:22:05.503Z,44.90
2023-05-10T18:27:05.853Z,45.00
2023-05-10T18:29:33.299Z,45.04
2023-05-10T18:32:00.982Z,45.07
2023-05-10T18:34:28.788Z,44.90
2023-05-10T18:36:56.678Z,45.01
2023-05-10T18:39:24.424Z,45.02
2023-05-10T18:41:52.381Z,45.11
2023-05-10T18:44:21.987Z,44.95
2023-05-10T18:46:54.115Z,45.16
2023-05-10T18:49:21.760Z,44.80
2023-05-10T18:51:49.755Z,44.93
2023-05-10T18:54:17.405Z,45.01
2023-05-10T18:56:45.725Z,44.95
2023-05-10T18:59:14.047Z,44.78
2023-05-10T19:01:42.162Z,44.96
2023-05-10T19:04:09.675Z,45.08
2023-05-10T19:06:37.321Z,45.08
2023-05-10T19:09:04.942Z,45.13
2023-05-10T19:11:34.435Z,45.00
2023-05-10T19:14:02.358Z,45.26
2023-05-10T19:16:30.584Z,45.25
2023-05-10T19:18:58.277Z,45.26
2023-05-10T19:21:26.829Z,45.27
2023-05-10T19:23:55.310Z,45.45
2023-05-10T19:26:23.307Z,45.39
2023-05-10T19:28:52.145Z,45.50
2023-05-10T19:31:21.314Z,45.67
2023-05-10T19:33:49.073Z,45.79
2023-05-10T19:36:16.714Z,46.21
2023-05-10T19:38:44.008Z,46.36
2023-05-10T19:41:12.935Z,46.57
2023-05-10T19:43:41.754Z,46.46
2023-05-10T19:46:09.973Z,46.57
2023-05-10T19:48:37.783Z,46.84
2023-05-10T19:51:08.506Z,46.74
2023-05-10T19:53:37.640Z,47.24
2023-05-10T19:56:06.710Z,47.02
2023-05-10T19:58:34.413Z,46.99
2023-05-10T20:01:02.663Z,47.09
2023-05-10T20:03:30.282Z,47.18
2023-05-10T20:05:57.892Z,47.17
2023-05-10T20:08:25.159Z,47.18
2023-05-10T20:10:53.051Z,47.17
2023-05-10T20:13:20.577Z,47.22
2023-05-10T20:15:48.160Z,47.28
2023-05-10T20:18:15.867Z,47.34
2023-05-10T20:20:43.413Z,47.38
2023-05-10T20:23:10.711Z,47.26
2023-05-10T20:25:38.221Z,47.21
2023-05-10T20:28:05.864Z,47.25
2023-05-10T20:30:33.501Z,47.48
2023-05-10T20:33:00.851Z,47.38
2023-05-10T20:35:28.504Z,47.34
2023-05-10T20:37:55.761Z,47.31
2023-05-10T20:40:23.467Z,47.16
2023-05-10T20:42:53.905Z,47.30
2023-05-10T20:45:21.424Z,47.49
2023-05-10T20:47:48.842Z,47.43
2023-05-10T20:50:17.033Z,47.50
2023-05-10T20:52:44.620Z,47.48
2023-05-10T20:55:12.744Z,47.62
2023-05-10T20:57:40.037Z,47.32
2023-05-10T21:00:09.369Z,47.51
2023-05-10T21:02:36.980Z,47.73
2023-05-10T21:05:05.318Z,47.66
2023-05-10T21:07:32.856Z,47.48
2023-05-10T21:10:00.490Z,47.43
2023-05-10T21:12:27.856Z,47.42
2023-05-10T21:14:55.542Z,47.54
2023-05-10T21:17:22.860Z,47.39
2023-05-10T21:19:50.734Z,47.58
2023-05-10T21:22:18.058Z,47.49
2023-05-10T21:24:45.628Z,47.76
2023-05-10T21:27:13.356Z,47.64
2023-05-10T21:29:41.061Z,47.56
2023-05-10T21:32:08.490Z,47.58
2023-05-10T21:34:36.087Z,47.58
2023-05-10T21:37:03.388Z,47.58
2023-05-10T21:39:30.995Z,47.65
2023-05-10T21:41:59.725Z,47.63
2023-05-10T21:44:27.294Z,47.50
2023-05-10T21:46:54.768Z,47.60
2023-05-10T21:49:22.283Z,47.83
2023-05-10T21:51:51.198Z,47.78
2023-05-10T21:54:18.997Z,47.69
2023-05-10T21:56:46.383Z,47.68
2023-05-10T21:59:14.296Z,47.82
2023-05-10T22:01:43.623Z,47.68
2023-05-10T22:04:11.220Z,47.79
2023-05-10T22:06:38.570Z,47.75
2023-05-10T22:09:06.513Z,47.87
2023-05-10T22:11:34.424Z,47.76
2023-05-10T22:14:01.947Z,47.86
2023-05-10T22:16:29.376Z,47.69
2023-05-10T22:18:56.950Z,47.93
2023-05-10T22:21:24.208Z,47.83
2023-05-10T22:23:51.815Z,48.02
2023-05-10T22:26:19.040Z,47.98
2023-05-10T22:28:46.564Z,47.84
2023-05-10T22:31:14.636Z,48.04
2023-05-10T22:33:42.301Z,47.93
2023-05-10T22:36:09.792Z,47.86
2023-05-10T22:38:37.562Z,48.04
2023-05-10T22:41:04.859Z,48.01
2023-05-10T22:43:32.575Z,48.09
2023-05-10T22:45:59.843Z,48.02
2023-05-10T22:48:28.881Z,47.98
2023-05-10T22:50:56.227Z,47.95
2023-05-10T22:53:24.312Z,48.13
2023-05-10T22:55:52.575Z,48.02
2023-05-10T22:58:20.041Z,48.08
2023-05-10T23:00:47.341Z,48.08
2023-05-10T23:03:15.219Z,48.21
2023-05-10T23:05:42.434Z,48.32
2023-05-10T23:08:09.990Z,48.28
2023-05-10T23:10:38.344Z,48.14
2023-05-10T23:13:07.837Z,48.31
2023-05-10T23:15:36.227Z,48.25
2023-05-10T23:18:05.861Z,48.30
2023-05-10T23:20:33.286Z,48.33
2023-05-10T23:23:00.852Z,48.42
2023-05-10T23:25:28.143Z,48.29
2023-05-10T23:27:55.624Z,48.38
2023-05-10T23:30:22.914Z,48.35
2023-05-10T23:32:50.493Z,48.48
2023-05-10T23:35:17.750Z,48.36
2023-05-10T23:37:45.361Z,48.48
2023-05-10T23:40:14.062Z,48.27
2023-05-10T23:42:41.582Z,48.67
2023-05-10T23:45:09.113Z,48.32
2023-05-10T23:47:36.783Z,48.49
2023-05-10T23:50:05.669Z,48.55
2023-05-10T23:52:33.527Z,48.52
2023-05-10T23:55:00.888Z,48.46
2023-05-10T23:57:28.387Z,48.58
2023-05-10T23:59:56.065Z,48.39
